Time;durP1;ratioP1;P1;durP2;ratioP2;P2;SDS_P1;SDS_P2;PMS_P1;PMS_P2;Temp;Humidity;BMP_temperature;BMP_pressure;BME280_temperature;BME280_humidity;BME280_pressure;Samples;Min_cycle;Max_cycle;Signal;HPM_P1;HPM_P2
2024/02/10 00:02:10;;;;;;;6.33;5.60;;;;;;;;;;5021632;28;20634;-55
2024/02/10 00:04:38;;;;;;;6.43;5.60;;;;;;;;;;5020571;28;20563;-54
2024/02/10 00:07:05;;;;;;;7.93;6.80;;;;;;;;;;5021191;28;20244;-54
2024/02/10 00:09:31;;;;;;;7.07;6.33;;;;;;;;;;5021064;28;20796;-54
2024/02/10 00:11:58;;;;;;;8.40;6.40;;;;;;;;;;5028877;28;20198;-54
2024/02/10 00:14:24;;;;;;;9.03;6.50;;;;;;;;;;5024033;28;20201;-54
2024/02/10 00:16:50;;;;;;;8.57;7.70;;;;;;;;;;5025736;28;20178;-58
2024/02/10 00:19:17;;;;;;;7.03;6.00;;;;;;;;;;5025308;28;20234;-59
2024/02/10 00:21:47;;;;;;;6.63;5.90;;;;;;;;;;5028098;28;20526;-59
2024/02/10 00:24:13;;;;;;;9.00;5.33;;;;;;;;;;5027545;28;20177;-57
2024/02/10 00:26:39;;;;;;;9.53;6.10;;;;;;;;;;5024159;28;20324;-59
2024/02/10 00:29:05;;;;;;;8.20;6.87;;;;;;;;;;5021511;28;20504;-58
2024/02/10 00:31:31;;;;;;;7.33;5.80;;;;;;;;;;5023364;28;20189;-58
2024/02/10 00:33:58;;;;;;;6.93;5.80;;;;;;;;;;5028876;28;20245;-56
2024/02/10 00:36:24;;;;;;;6.77;6.00;;;;;;;;;;5027854;28;20212;-57
2024/02/10 00:38:51;;;;;;;9.23;5.07;;;;;;;;;;5029042;28;20280;-58
2024/02/10 00:41:19;;;;;;;7.47;5.37;;;;;;;;;;5031131;28;20556;-56
2024/02/10 00:43:45;;;;;;;7.23;4.80;;;;;;;;;;5032917;28;20206;-58
2024/02/10 00:46:12;;;;;;;4.20;3.80;;;;;;;;;;5024363;28;20175;-57
2024/02/10 00:48:38;;;;;;;5.87;4.33;;;;;;;;;;5027267;28;20196;-58
2024/02/10 00:51:05;;;;;;;5.23;3.77;;;;;;;;;;5028516;28;20201;-58
2024/02/10 00:53:40;;;;;;;6.00;4.63;;;;;;;;;;5024359;28;20201;-59
2024/02/10 00:56:08;;;;;;;5.03;4.30;;;;;;;;;;5026357;28;20173;-57
2024/02/10 00:58:35;;;;;;;5.67;5.17;;;;;;;;;;5025122;28;20170;-59
2024/02/10 01:01:01;;;;;;;5.40;4.90;;;;;;;;;;5029183;28;20170;-58
2024/02/10 01:03:27;;;;;;;5.13;3.63;;;;;;;;;;5029075;28;20166;-55
2024/02/10 01:05:55;;;;;;;5.10;3.90;;;;;;;;;;5028458;28;20265;-59
2024/02/10 01:08:22;;;;;;;5.13;3.70;;;;;;;;;;5027591;28;20704;-59
2024/02/10 01:10:48;;;;;;;5.40;3.57;;;;;;;;;;5023578;28;20286;-59
2024/02/10 01:13:14;;;;;;;3.93;3.43;;;;;;;;;;5029856;28;20193;-58
2024/02/10 01:15:40;;;;;;;5.23;3.80;;;;;;;;;;5025212;28;20166;-58
2024/02/10 01:18:07;;;;;;;3.80;3.40;;;;;;;;;;5028336;28;20224;-59
2024/02/10 01:20:33;;;;;;;4.87;3.37;;;;;;;;;;5026701;28;20303;-56
2024/02/10 01:22:59;;;;;;;4.37;3.90;;;;;;;;;;5021687;28;20669;-57
2024/02/10 01:25:25;;;;;;;3.27;2.97;;;;;;;;;;5026602;28;20170;-54
2024/02/10 01:27:51;;;;;;;4.60;3.47;;;;;;;;;;5025014;28;20220;-55
2024/02/10 01:30:20;;;;;;;3.70;2.97;;;;;;;;;;5022825;28;20182;-56
2024/02/10 01:32:46;;;;;;;4.13;2.83;;;;;;;;;;5020210;28;20276;-58
2024/02/10 01:35:12;;;;;;;2.90;2.60;;;;;;;;;;5027226;28;20185;-57
2024/02/10 01:37:41;;;;;;;3.20;2.87;;;;;;;;;;5026421;28;20177;-59
2024/02/10 01:40:10;;;;;;;3.83;3.53;;;;;;;;;;5018785;28;20669;-59
2024/02/10 01:42:40;;;;;;;3.20;2.90;;;;;;;;;;5035357;28;20521;-59
2024/02/10 01:45:13;;;;;;;3.33;3.07;;;;;;;;;;5024884;28;20186;-59
2024/02/10 01:47:41;;;;;;;3.50;3.10;;;;;;;;;;5019486;28;20297;-59
2024/02/10 01:50:07;;;;;;;3.20;2.90;;;;;;;;;;5025558;28;20166;-58
2024/02/10 01:52:37;;;;;;;3.90;3.60;;;;;;;;;;5026909;28;20181;-58
2024/02/10 01:55:07;;;;;;;4.60;4.20;;;;;;;;;;5024606;28;20194;-58
2024/02/10 01:57:33;;;;;;;9.03;4.37;;;;;;;;;;5029360;28;20209;-60
2024/02/10 02:00:05;;;;;;;4.30;3.90;;;;;;;;;;5030053;28;20173;-57
2024/02/10 02:02:32;;;;;;;4.87;4.20;;;;;;;;;;5023752;28;20648;-58
2024/02/10 02:04:59;;;;;;;6.73;4.47;;;;;;;;;;5028471;28;20648;-59
2024/02/10 02:07:30;;;;;;;5.47;4.97;;;;;;;;;;5029931;28;20201;-57
2024/02/10 02:09:56;;;;;;;8.07;5.17;;;;;;;;;;5026357;28;20218;-61
2024/02/10 02:12:22;;;;;;;6.10;5.30;;;;;;;;;;5025402;28;20189;-58
2024/02/10 02:14:48;;;;;;;6.20;4.60;;;;;;;;;;5023859;28;20175;-58
2024/02/10 02:17:14;;;;;;;8.17;5.70;;;;;;;;;;5026672;28;20176;-59
2024/02/10 02:19:42;;;;;;;6.87;5.03;;;;;;;;;;5027634;28;20616;-56
2024/02/10 02:22:13;;;;;;;5.67;4.63;;;;;;;;;;5028641;28;20179;-58
2024/02/10 02:24:39;;;;;;;5.90;5.40;;;;;;;;;;5029366;28;20192;-57
2024/02/10 02:27:07;;;;;;;4.47;4.07;;;;;;;;;;5022065;28;20217;-58
2024/02/10 02:29:33;;;;;;;9.00;5.07;;;;;;;;;;5027334;28;20178;-58
2024/02/10 02:32:00;;;;;;;6.37;5.77;;;;;;;;;;5022795;28;20182;-58
2024/02/10 02:34:26;;;;;;;5.40;4.33;;;;;;;;;;5017796;28;20182;-58
2024/02/10 02:36:53;;;;;;;6.87;5.20;;;;;;;;;;5027701;28;20185;-49
2024/02/10 02:39:22;;;;;;;5.03;4.63;;;;;;;;;;5025700;28;20197;-51
2024/02/10 02:41:48;;;;;;;5.03;4.33;;;;;;;;;;5022695;28;20540;-50
2024/02/10 02:44:14;;;;;;;5.97;5.47;;;;;;;;;;5023749;28;20178;-50
2024/02/10 02:46:44;;;;;;;6.03;4.97;;;;;;;;;;5027697;28;20236;-50
2024/02/10 02:49:16;;;;;;;5.37;4.97;;;;;;;;;;5024568;28;20190;-50
2024/02/10 02:51:47;;;;;;;5.10;4.57;;;;;;;;;;5026858;28;20306;-50
2024/02/10 02:54:13;;;;;;;5.67;4.73;;;;;;;;;;5016619;28;20185;-51
2024/02/10 02:56:39;;;;;;;5.10;4.60;;;;;;;;;;5022319;28;20185;-51
2024/02/10 02:59:07;;;;;;;7.17;5.03;;;;;;;;;;5023952;28;20174;-51
2024/02/10 03:01:33;;;;;;;5.03;4.30;;;;;;;;;;5021895;28;20290;-50
2024/02/10 03:03:59;;;;;;;3.57;3.27;;;;;;;;;;5025763;28;20178;-50
2024/02/10 03:06:25;;;;;;;5.60;3.53;;;;;;;;;;5026820;28;20174;-50
2024/02/10 03:08:54;;;;;;;5.47;4.27;;;;;;;;;;5022966;28;20242;-50
2024/02/10 03:11:20;;;;;;;4.23;3.70;;;;;;;;;;5025514;28;20184;-51
2024/02/10 03:13:49;;;;;;;4.90;3.67;;;;;;;;;;5026634;28;20193;-51
2024/02/10 03:16:17;;;;;;;4.20;3.80;;;;;;;;;;5026628;28;20243;-53
2024/02/10 03:18:45;;;;;;;4.57;4.17;;;;;;;;;;5026507;28;20213;-50
2024/02/10 03:21:14;;;;;;;5.57;4.60;;;;;;;;;;5025737;28;20228;-51
2024/02/10 03:23:41;;;;;;;4.00;3.70;;;;;;;;;;5022984;28;20185;-50
2024/02/10 03:26:07;;;;;;;4.63;3.97;;;;;;;;;;5026321;28;20681;-50
2024/02/10 03:28:33;;;;;;;5.63;5.03;;;;;;;;;;5027122;28;20190;-50
2024/02/10 03:31:01;;;;;;;4.23;3.93;;;;;;;;;;5025722;28;20441;-52
2024/02/10 03:33:27;;;;;;;4.67;3.73;;;;;;;;;;5026260;28;21001;-50
2024/02/10 03:35:54;;;;;;;4.77;4.07;;;;;;;;;;5023658;28;20228;-50
2024/02/10 03:38:22;;;;;;;3.60;3.30;;;;;;;;;;5025193;28;20310;-51
2024/02/10 03:40:48;;;;;;;4.33;4.03;;;;;;;;;;5025737;28;20185;-51
2024/02/10 03:43:14;;;;;;;4.13;3.73;;;;;;;;;;5019606;28;20209;-51
2024/02/10 03:45:40;;;;;;;4.13;3.73;;;;;;;;;;5026253;28;20616;-51
2024/02/10 03:48:07;;;;;;;3.67;3.27;;;;;;;;;;5023132;28;20201;-51
2024/02/10 03:50:34;;;;;;;3.80;3.50;;;;;;;;;;5025242;28;20256;-51
2024/02/10 03:53:00;;;;;;;3.33;3.03;;;;;;;;;;5024531;28;20576;-51
2024/02/10 03:55:26;;;;;;;5.03;3.27;;;;;;;;;;5027609;28;20255;-51
2024/02/10 03:57:53;;;;;;;5.20;2.97;;;;;;;;;;5031268;28;20185;-52
2024/02/10 04:00:24;;;;;;;3.83;3.53;;;;;;;;;;5030995;28;20497;-51
2024/02/10 04:02:50;;;;;;;4.30;3.30;;;;;;;;;;5031164;28;20193;-53
2024/02/10 04:05:16;;;;;;;4.80;4.10;;;;;;;;;;5024211;28;20182;-50
2024/02/10 04:07:52;;;;;;;3.87;3.57;;;;;;;;;;5019171;28;20208;-51
2024/02/10 04:10:19;;;;;;;4.07;3.10;;;;;;;;;;5028463;28;20691;-50
2024/02/10 04:12:48;;;;;;;3.50;3.23;;;;;;;;;;5022923;28;20236;-50
2024/02/10 04:15:14;;;;;;;3.37;3.10;;;;;;;;;;5029887;28;20609;-50
2024/02/10 04:17:42;;;;;;;3.40;3.20;;;;;;;;;;5029982;28;20237;-50
2024/02/10 04:20:09;;;;;;;2.77;2.57;;;;;;;;;;5025999;28;20672;-51
2024/02/10 04:22:39;;;;;;;3.77;3.47;;;;;;;;;;5029244;28;21721;-51
2024/02/10 04:25:08;;;;;;;6.00;5.60;;;;;;;;;;5026180;28;20538;-52
2024/02/10 04:27:34;;;;;;;3.03;2.83;;;;;;;;;;5022992;28;20205;-49
2024/02/10 04:30:04;;;;;;;4.47;4.17;;;;;;;;;;5028256;28;20166;-52
2024/02/10 04:32:30;;;;;;;4.50;4.20;;;;;;;;;;5025810;28;20178;-50
2024/02/10 04:34:56;;;;;;;4.40;4.00;;;;;;;;;;5025513;28;20188;-52
2024/02/10 04:37:22;;;;;;;7.87;7.37;;;;;;;;;;5030099;28;20194;-50
2024/02/10 04:39:48;;;;;;;8.20;7.70;;;;;;;;;;5026787;28;20186;-50
2024/02/10 04:42:15;;;;;;;7.47;6.97;;;;;;;;;;5025954;28;20288;-50
2024/02/10 04:44:41;;;;;;;7.77;7.27;;;;;;;;;;5027254;28;20175;-51
2024/02/10 04:47:07;;;;;;;4.33;4.07;;;;;;;;;;5028264;28;20284;-50
2024/02/10 04:49:37;;;;;;;6.87;6.37;;;;;;;;;;5027542;28;20344;-51
2024/02/10 04:52:04;;;;;;;2.70;2.50;;;;;;;;;;5027831;28;20177;-51
2024/02/10 04:54:30;;;;;;;3.10;2.90;;;;;;;;;;5027527;28;20170;-52
2024/02/10 04:56:58;;;;;;;5.60;5.20;;;;;;;;;;5033137;28;20648;-50
2024/02/10 04:59:27;;;;;;;3.60;3.30;;;;;;;;;;5029350;28;20194;-54
2024/02/10 05:01:55;;;;;;;4.23;2.80;;;;;;;;;;5025622;28;20170;-51
2024/02/10 05:04:21;;;;;;;4.00;3.73;;;;;;;;;;5027074;28;20174;-51
2024/02/10 05:06:47;;;;;;;3.30;2.90;;;;;;;;;;5021525;28;20202;-51
2024/02/10 05:09:14;;;;;;;4.70;3.57;;;;;;;;;;5025858;28;20177;-52
2024/02/10 05:11:43;;;;;;;4.10;3.90;;;;;;;;;;5027198;28;20185;-51
2024/02/10 05:14:10;;;;;;;3.70;3.40;;;;;;;;;;5028721;28;20186;-51
2024/02/10 05:16:37;;;;;;;2.93;2.73;;;;;;;;;;5024505;28;20273;-51
2024/02/10 05:19:03;;;;;;;2.40;2.27;;;;;;;;;;5025076;28;20222;-50
2024/02/10 05:21:32;;;;;;;3.73;3.50;;;;;;;;;;5018039;28;20308;-52
2024/02/10 05:24:05;;;;;;;5.63;4.13;;;;;;;;;;5022248;28;20221;-50
2024/02/10 05:26:34;;;;;;;3.63;3.33;;;;;;;;;;5026229;28;20181;-50
2024/02/10 05:29:07;;;;;;;2.83;2.53;;;;;;;;;;5023222;28;20590;-49
2024/02/10 05:31:36;;;;;;;3.00;2.80;;;;;;;;;;5025091;28;20228;-51
2024/02/10 05:34:03;;;;;;;2.27;2.07;;;;;;;;;;5027996;28;20178;-50
2024/02/10 05:36:34;;;;;;;2.63;2.43;;;;;;;;;;5026812;28;20254;-49
2024/02/10 05:39:00;;;;;;;3.10;2.73;;;;;;;;;;5024444;28;20163;-51
2024/02/10 05:41:27;;;;;;;2.17;2.07;;;;;;;;;;5025543;28;20533;-53
2024/02/10 05:43:53;;;;;;;2.70;2.50;;;;;;;;;;5026614;28;20226;-53
2024/02/10 05:46:20;;;;;;;2.23;2.03;;;;;;;;;;5027257;28;20185;-53
2024/02/10 05:48:47;;;;;;;2.63;2.40;;;;;;;;;;5029625;28;20589;-53
2024/02/10 05:51:13;;;;;;;2.27;1.97;;;;;;;;;;5027307;28;20181;-53
2024/02/10 05:53:39;;;;;;;1.83;1.73;;;;;;;;;;5023879;28;20552;-53
2024/02/10 05:56:05;;;;;;;4.07;2.20;;;;;;;;;;5028461;28;20173;-53
2024/02/10 05:58:32;;;;;;;1.97;1.80;;;;;;;;;;5028616;28;20677;-53
2024/02/10 06:00:58;;;;;;;2.13;1.93;;;;;;;;;;5024317;28;20558;-54
2024/02/10 06:03:26;;;;;;;2.40;1.80;;;;;;;;;;5028628;28;20483;-53
2024/02/10 06:05:52;;;;;;;2.27;2.07;;;;;;;;;;5028517;28;20184;-54
2024/02/10 06:08:19;;;;;;;2.20;2.00;;;;;;;;;;5024066;28;20194;-59
2024/02/10 06:10:45;;;;;;;2.57;2.17;;;;;;;;;;5026162;28;20293;-59
2024/02/10 06:13:14;;;;;;;2.00;1.80;;;;;;;;;;5028541;28;20228;-59
2024/02/10 06:15:41;;;;;;;2.23;2.03;;;;;;;;;;5021833;28;20210;-59
2024/02/10 06:18:08;;;;;;;2.07;1.87;;;;;;;;;;5025752;28;20252;-59
2024/02/10 06:20:34;;;;;;;2.77;2.13;;;;;;;;;;5029033;28;20325;-59
2024/02/10 06:23:01;;;;;;;2.20;2.00;;;;;;;;;;5025972;28;20549;-59
2024/02/10 06:25:27;;;;;;;2.23;1.90;;;;;;;;;;5027522;28;20181;-58
2024/02/10 06:27:54;;;;;;;2.00;1.90;;;;;;;;;;5027856;28;20663;-59
2024/02/10 06:30:22;;;;;;;2.47;2.00;;;;;;;;;;5026225;28;20174;-59
2024/02/10 06:32:48;;;;;;;2.93;2.30;;;;;;;;;;5027005;28;20501;-60
2024/02/10 06:35:20;;;;;;;2.90;2.00;;;;;;;;;;5023349;28;20594;-59
2024/02/10 06:37:49;;;;;;;2.40;2.20;;;;;;;;;;5026971;28;20491;-59
2024/02/10 06:40:15;;;;;;;2.78;2.40;;;;;;;;;;5021526;28;20571;-58
2024/02/10 06:42:42;;;;;;;2.10;2.00;;;;;;;;;;5018278;28;20210;-58
2024/02/10 06:45:14;;;;;;;2.63;2.43;;;;;;;;;;5018455;28;20191;-59
2024/02/10 06:47:41;;;;;;;2.23;2.03;;;;;;;;;;5020625;28;20667;-59
2024/02/10 06:50:07;;;;;;;2.43;2.23;;;;;;;;;;5024674;28;20269;-59
2024/02/10 06:52:37;;;;;;;3.20;2.90;;;;;;;;;;5020983;28;20177;-59
2024/02/10 06:55:12;;;;;;;2.33;2.13;;;;;;;;;;5021995;28;20180;-58
2024/02/10 06:57:42;;;;;;;2.70;2.50;;;;;;;;;;5018088;28;20186;-58
2024/02/10 07:00:14;;;;;;;2.60;2.40;;;;;;;;;;5022945;28;20323;-58
2024/02/10 07:02:42;;;;;;;2.77;2.40;;;;;;;;;;5015855;28;20197;-59
2024/02/10 07:05:13;;;;;;;3.00;2.80;;;;;;;;;;5026046;28;20177;-59
2024/02/10 07:07:41;;;;;;;3.77;2.93;;;;;;;;;;5020648;28;20711;-58
2024/02/10 07:10:13;;;;;;;2.60;2.40;;;;;;;;;;5016457;28;20648;-59
2024/02/10 07:12:39;;;;;;;3.73;1.93;;;;;;;;;;5024419;28;20185;-57
2024/02/10 07:15:05;;;;;;;3.70;3.40;;;;;;;;;;5014544;28;20199;-59
2024/02/10 07:17:31;;;;;;;3.87;2.47;;;;;;;;;;5017293;28;20186;-59
2024/02/10 07:19:57;;;;;;;2.20;2.00;;;;;;;;;;5025394;28;20192;-50
2024/02/10 07:22:25;;;;;;;2.97;2.77;;;;;;;;;;5016450;28;20178;-52
2024/02/10 07:24:51;;;;;;;2.87;2.53;;;;;;;;;;5019882;28;20208;-51
2024/02/10 07:27:17;;;;;;;3.03;2.83;;;;;;;;;;5019688;28;20270;-53
2024/02/10 07:29:45;;;;;;;4.60;3.17;;;;;;;;;;5020757;28;20178;-52
2024/02/10 07:32:13;;;;;;;3.93;3.57;;;;;;;;;;5021160;28;20189;-50
2024/02/10 07:34:40;;;;;;;3.30;2.50;;;;;;;;;;5023285;28;20174;-50
2024/02/10 07:37:07;;;;;;;2.73;2.53;;;;;;;;;;5020686;28;20174;-51
2024/02/10 07:39:33;;;;;;;2.80;2.50;;;;;;;;;;5021052;28;20213;-51
2024/02/10 07:42:01;;;;;;;2.93;2.73;;;;;;;;;;5024473;28;20579;-51
2024/02/10 07:44:27;;;;;;;4.33;3.03;;;;;;;;;;5026689;28;20277;-51
2024/02/10 07:46:55;;;;;;;2.97;2.67;;;;;;;;;;5027333;28;20216;-50
2024/02/10 07:49:22;;;;;;;3.20;2.90;;;;;;;;;;5024364;28;20607;-52
2024/02/10 07:51:48;;;;;;;4.07;3.77;;;;;;;;;;5022004;28;20182;-53
2024/02/10 07:54:19;;;;;;;3.93;3.63;;;;;;;;;;5023106;28;20185;-51
2024/02/10 07:56:46;;;;;;;3.83;3.53;;;;;;;;;;5022989;28;20193;-51
2024/02/10 07:59:12;;;;;;;4.27;3.30;;;;;;;;;;5028206;28;20657;-52
2024/02/10 08:01:38;;;;;;;4.63;2.60;;;;;;;;;;5027852;28;20583;-51
2024/02/10 08:04:09;;;;;;;3.47;3.17;;;;;;;;;;5026417;28;20205;-51
2024/02/10 08:06:36;;;;;;;4.53;2.90;;;;;;;;;;5026630;28;20215;-51
2024/02/10 08:09:02;;;;;;;3.57;3.27;;;;;;;;;;5022928;28;20185;-50
2024/02/10 08:11:29;;;;;;;3.70;3.40;;;;;;;;;;5022812;28;20186;-51
2024/02/10 08:13:55;;;;;;;3.03;2.73;;;;;;;;;;5025523;28;20543;-52
2024/02/10 08:16:25;;;;;;;2.77;2.57;;;;;;;;;;5021935;28;20185;-53
2024/02/10 08:18:51;;;;;;;3.07;2.63;;;;;;;;;;5019539;28;20218;-50
2024/02/10 08:21:18;;;;;;;3.00;2.70;;;;;;;;;;5026258;28;20251;-51
2024/02/10 08:23:49;;;;;;;3.00;2.43;;;;;;;;;;5020643;28;20186;-52
2024/02/10 08:26:17;;;;;;;3.17;2.87;;;;;;;;;;5013811;28;20186;-55
2024/02/10 08:28:55;;;;;;;3.03;2.83;;;;;;;;;;5023631;28;20266;-55
2024/02/10 08:31:23;;;;;;;2.80;2.57;;;;;;;;;;5022954;28;20188;-55
2024/02/10 08:33:49;;;;;;;3.37;3.07;;;;;;;;;;5026350;28;20181;-55
2024/02/10 08:36:16;;;;;;;3.23;2.63;;;;;;;;;;5027108;28;20188;-55
2024/02/10 08:38:42;;;;;;;3.37;3.00;;;;;;;;;;5022119;28;20186;-55
2024/02/10 08:41:08;;;;;;;2.77;2.57;;;;;;;;;;5023803;28;20190;-55
2024/02/10 08:43:36;;;;;;;2.53;2.33;;;;;;;;;;5025863;28;20818;-55
2024/02/10 08:46:02;;;;;;;3.03;2.73;;;;;;;;;;5028052;28;20679;-55
2024/02/10 08:48:29;;;;;;;3.10;2.80;;;;;;;;;;5027900;28;20744;-55
2024/02/10 08:50:55;;;;;;;2.70;2.50;;;;;;;;;;5025338;28;20216;-55
2024/02/10 08:53:22;;;;;;;2.70;2.50;;;;;;;;;;5024146;28;20181;-55
2024/02/10 08:55:49;;;;;;;4.23;2.83;;;;;;;;;;5017796;28;20187;-55
2024/02/10 08:58:15;;;;;;;3.30;2.90;;;;;;;;;;5025874;28;20818;-55
2024/02/10 09:00:45;;;;;;;3.27;2.97;;;;;;;;;;5024579;28;20190;-55
2024/02/10 09:03:11;;;;;;;3.07;2.77;;;;;;;;;;5021310;28;20539;-55
2024/02/10 09:05:37;;;;;;;3.70;2.83;;;;;;;;;;5027026;28;20220;-55
2024/02/10 09:08:03;;;;;;;2.50;2.30;;;;;;;;;;5026681;28;20236;-55
2024/02/10 09:10:30;;;;;;;2.67;2.40;;;;;;;;;;5026466;28;20218;-55
2024/02/10 09:12:56;;;;;;;2.33;2.13;;;;;;;;;;5030114;28;20182;-55
2024/02/10 09:15:22;;;;;;;6.03;2.47;;;;;;;;;;5029550;28;20171;-55
2024/02/10 09:17:50;;;;;;;2.53;2.33;;;;;;;;;;5028547;28;20379;-55
2024/02/10 09:20:16;;;;;;;3.17;2.87;;;;;;;;;;5026897;28;20201;-55
2024/02/10 09:22:43;;;;;;;2.80;2.60;;;;;;;;;;5028770;28;20185;-55
2024/02/10 09:25:10;;;;;;;2.47;2.27;;;;;;;;;;5027442;28;20185;-55
2024/02/10 09:27:36;;;;;;;2.30;2.20;;;;;;;;;;5027430;28;20435;-55
2024/02/10 09:30:03;;;;;;;2.37;2.17;;;;;;;;;;5027098;28;20499;-55
2024/02/10 09:32:29;;;;;;;2.40;2.20;;;;;;;;;;5027116;28;20189;-55
2024/02/10 09:34:55;;;;;;;2.53;2.33;;;;;;;;;;5027151;28;20502;-55
2024/02/10 09:37:21;;;;;;;1.77;1.67;;;;;;;;;;5020079;28;20587;-55
2024/02/10 09:39:47;;;;;;;3.33;2.47;;;;;;;;;;5019335;28;20189;-51
2024/02/10 09:42:20;;;;;;;6.37;2.07;;;;;;;;;;5022328;28;20201;-50
2024/02/10 09:44:49;;;;;;;2.80;1.80;;;;;;;;;;5020895;28;20178;-52
2024/02/10 09:47:16;;;;;;;2.03;1.77;;;;;;;;;;5021769;28;20292;-52
2024/02/10 09:49:43;;;;;;;3.00;1.90;;;;;;;;;;5019917;28;20186;-54
2024/02/10 09:52:09;;;;;;;2.70;1.60;;;;;;;;;;5019752;28;20177;-53
2024/02/10 09:54:36;;;;;;;2.77;2.43;;;;;;;;;;5023077;28;20217;-53
2024/02/10 09:57:04;;;;;;;2.37;1.90;;;;;;;;;;5021254;28;20197;-53
2024/02/10 09:59:31;;;;;;;1.87;1.70;;;;;;;;;;5027202;28;20178;-53
2024/02/10 10:01:58;;;;;;;1.87;1.70;;;;;;;;;;5023110;28;20189;-53
2024/02/10 10:04:24;;;;;;;2.40;1.90;;;;;;;;;;5028162;28;20635;-53
2024/02/10 10:06:50;;;;;;;3.33;1.97;;;;;;;;;;5026917;28;20241;-51
2024/02/10 10:09:18;;;;;;;1.90;1.53;;;;;;;;;;5025454;28;20247;-52
2024/02/10 10:11:45;;;;;;;2.13;1.70;;;;;;;;;;5028422;28;20599;-55
2024/02/10 10:14:13;;;;;;;1.90;1.80;;;;;;;;;;5021460;28;20177;-56
2024/02/10 10:16:40;;;;;;;2.80;1.83;;;;;;;;;;5028809;28;20212;-55
2024/02/10 10:19:07;;;;;;;2.07;1.70;;;;;;;;;;5027636;28;20765;-55
2024/02/10 10:21:33;;;;;;;1.73;1.63;;;;;;;;;;5028549;28;20181;-54
2024/02/10 10:23:59;;;;;;;1.70;1.60;;;;;;;;;;5026918;28;20323;-55
2024/02/10 10:26:26;;;;;;;2.23;1.70;;;;;;;;;;5028617;28;20178;-55
2024/02/10 10:28:52;;;;;;;4.10;1.70;;;;;;;;;;5026294;28;20236;-56
2024/02/10 10:31:18;;;;;;;1.60;1.50;;;;;;;;;;5028048;28;20546;-55
2024/02/10 10:33:48;;;;;;;1.93;1.50;;;;;;;;;;5026806;28;20201;-55
2024/02/10 10:36:17;;;;;;;1.83;1.70;;;;;;;;;;5027138;28;20180;-54
2024/02/10 10:38:46;;;;;;;2.20;1.80;;;;;;;;;;5026865;28;20351;-54
2024/02/10 10:41:18;;;;;;;1.87;1.63;;;;;;;;;;5027621;28;20240;-54
2024/02/10 10:43:45;;;;;;;5.80;1.73;;;;;;;;;;5018550;28;20719;-54
2024/02/10 10:46:16;;;;;;;3.80;1.60;;;;;;;;;;5021592;28;20688;-52
2024/02/10 10:48:42;;;;;;;1.70;1.60;;;;;;;;;;5020652;28;20554;-54
2024/02/10 10:51:10;;;;;;;3.30;2.37;;;;;;;;;;5022873;28;20194;-55
2024/02/10 10:53:36;;;;;;;3.57;1.73;;;;;;;;;;5022812;28;20179;-54
2024/02/10 10:56:04;;;;;;;2.13;1.90;;;;;;;;;;5025233;28;20176;-54
2024/02/10 10:58:38;;;;;;;1.87;1.47;;;;;;;;;;5025252;28;20211;-55
2024/02/10 11:01:05;;;;;;;2.10;1.90;;;;;;;;;;5019922;28;20186;-54
2024/02/10 11:03:32;;;;;;;2.13;1.90;;;;;;;;;;5020995;28;20548;-54
2024/02/10 11:05:58;;;;;;;2.00;1.67;;;;;;;;;;5022978;28;20174;-55
2024/02/10 11:08:27;;;;;;;1.80;1.70;;;;;;;;;;5030412;28;20201;-55
2024/02/10 11:10:59;;;;;;;1.70;1.60;;;;;;;;;;5025141;28;20650;-55
2024/02/10 11:13:28;;;;;;;1.93;1.70;;;;;;;;;;5019404;28;20195;-55
2024/02/10 11:16:12;;;;;;;2.53;2.33;;;;;;;;;;5022759;28;20190;-54
2024/02/10 11:18:38;;;;;;;1.97;1.70;;;;;;;;;;5022658;28;20307;-54
2024/02/10 11:21:16;;;;;;;2.13;1.50;;;;;;;;;;5026046;28;20650;-55
2024/02/10 11:23:42;;;;;;;2.23;2.10;;;;;;;;;;5025377;28;20186;-55
2024/02/10 11:26:10;;;;;;;2.17;1.97;;;;;;;;;;5021006;28;21834;-54
2024/02/10 11:28:38;;;;;;;2.30;1.67;;;;;;;;;;5025792;28;20305;-53
2024/02/10 11:31:10;;;;;;;2.00;1.90;;;;;;;;;;5024830;28;20541;-54
2024/02/10 11:33:38;;;;;;;1.90;1.80;;;;;;;;;;5018387;28;20180;-53
2024/02/10 11:36:08;;;;;;;1.90;1.70;;;;;;;;;;5021981;28;20616;-54
2024/02/10 11:38:35;;;;;;;2.37;1.83;;;;;;;;;;5025698;28;20549;-54
2024/02/10 11:41:02;;;;;;;2.47;1.90;;;;;;;;;;5025307;28;20281;-54
2024/02/10 11:43:28;;;;;;;2.10;2.00;;;;;;;;;;5023882;28;20657;-54
2024/02/10 11:45:54;;;;;;;3.10;1.67;;;;;;;;;;5019122;28;20271;-54
2024/02/10 11:48:21;;;;;;;2.13;1.93;;;;;;;;;;5020016;28;20539;-55
2024/02/10 11:50:48;;;;;;;1.77;1.67;;;;;;;;;;5026256;28;20218;-54
2024/02/10 11:53:16;;;;;;;3.27;1.90;;;;;;;;;;5025229;28;20186;-54
2024/02/10 11:55:43;;;;;;;1.90;1.70;;;;;;;;;;5024045;28;20186;-55
2024/02/10 11:58:16;;;;;;;2.03;1.90;;;;;;;;;;5025922;28;20410;-58
2024/02/10 12:00:44;;;;;;;9.33;2.43;;;;;;;;;;5026754;28;20171;-57
2024/02/10 12:03:13;;;;;;;2.33;1.80;;;;;;;;;;5026510;28;20597;-58
2024/02/10 12:05:40;;;;;;;1.80;1.70;;;;;;;;;;5026181;28;20708;-57
2024/02/10 12:08:09;;;;;;;2.80;1.80;;;;;;;;;;5025284;28;20629;-57
2024/02/10 12:10:42;;;;;;;1.67;1.57;;;;;;;;;;5026791;28;20217;-57
2024/02/10 12:13:12;;;;;;;1.60;1.37;;;;;;;;;;5019402;28;20743;-58
2024/02/10 12:15:38;;;;;;;1.70;1.60;;;;;;;;;;5020484;28;20543;-58
2024/02/10 12:18:04;;;;;;;2.77;1.43;;;;;;;;;;5021117;28;20375;-58
2024/02/10 12:20:31;;;;;;;1.40;1.30;;;;;;;;;;5016856;28;20188;-58
2024/02/10 12:22:57;;;;;;;2.00;1.43;;;;;;;;;;5019456;28;20245;-56
2024/02/10 12:25:23;;;;;;;2.63;1.60;;;;;;;;;;5027476;28;20184;-57
2024/02/10 12:27:49;;;;;;;2.53;1.70;;;;;;;;;;5026441;28;20644;-57
2024/02/10 12:30:16;;;;;;;2.23;1.40;;;;;;;;;;5024570;28;20215;-58
2024/02/10 12:32:42;;;;;;;1.80;1.70;;;;;;;;;;5029107;28;20567;-56
2024/02/10 12:35:16;;;;;;;1.83;1.50;;;;;;;;;;5029457;28;20174;-58
2024/02/10 12:37:44;;;;;;;3.33;1.70;;;;;;;;;;5022802;28;20648;-58
2024/02/10 12:40:11;;;;;;;1.50;1.40;;;;;;;;;;5026738;28;20647;-58
2024/02/10 12:42:42;;;;;;;3.60;1.67;;;;;;;;;;5029840;28;20238;-58
2024/02/10 12:45:19;;;;;;;2.07;1.87;;;;;;;;;;5028829;28;20254;-57
2024/02/10 12:47:45;;;;;;;2.83;1.73;;;;;;;;;;5024840;28;20213;-57
2024/02/10 12:50:12;;;;;;;2.00;1.80;;;;;;;;;;5024141;28;20187;-57
2024/02/10 12:52:39;;;;;;;2.37;1.80;;;;;;;;;;5029887;28;20245;-57
2024/02/10 12:55:13;;;;;;;1.57;1.47;;;;;;;;;;5027163;28;20181;-57
2024/02/10 12:57:40;;;;;;;3.77;2.00;;;;;;;;;;5027926;28;20208;-58
2024/02/10 13:00:20;;;;;;;2.33;1.77;;;;;;;;;;5025955;28;20207;-58
2024/02/10 13:02:47;;;;;;;5.27;1.90;;;;;;;;;;5030096;28;20627;-57
2024/02/10 13:05:14;;;;;;;1.80;1.53;;;;;;;;;;5026724;28;20190;-57
2024/02/10 13:07:41;;;;;;;1.43;1.33;;;;;;;;;;5029903;28;20637;-57
2024/02/10 13:10:18;;;;;;;1.60;1.50;;;;;;;;;;5026770;28;20234;-58
2024/02/10 13:12:58;;;;;;;1.60;1.50;;;;;;;;;;5026918;28;20598;-57
2024/02/10 13:15:24;;;;;;;1.50;1.40;;;;;;;;;;5024084;28;20188;-57
2024/02/10 13:17:51;;;;;;;1.60;1.50;;;;;;;;;;5029271;28;20222;-55
2024/02/10 13:20:25;;;;;;;2.53;1.70;;;;;;;;;;5028875;28;20186;-57
2024/02/10 13:22:54;;;;;;;1.87;1.53;;;;;;;;;;5027890;28;20526;-56
2024/02/10 13:25:23;;;;;;;1.80;1.70;;;;;;;;;;5029251;28;20189;-57
2024/02/10 13:27:51;;;;;;;1.80;1.70;;;;;;;;;;5022301;28;20632;-57
2024/02/10 13:30:17;;;;;;;1.80;1.70;;;;;;;;;;5025573;28;20524;-57
2024/02/10 13:32:44;;;;;;;2.20;1.77;;;;;;;;;;5025939;28;20605;-57
2024/02/10 13:35:13;;;;;;;2.30;1.87;;;;;;;;;;5029699;28;20645;-57
2024/02/10 14:12:40;;;;;;;1.67;1.57;;;;;;;;;;5023382;28;20238;-58
2024/02/10 14:15:16;;;;;;;1.60;1.50;;;;;;;;;;5024253;28;20191;-57
2024/02/10 14:17:47;;;;;;;2.33;1.50;;;;;;;;;;5025921;28;20261;-55
2024/02/10 14:20:22;;;;;;;2.27;1.93;;;;;;;;;;5030563;28;20182;-55
2024/02/10 14:22:49;;;;;;;1.83;1.73;;;;;;;;;;5024571;28;20332;-54
2024/02/10 14:25:25;;;;;;;1.50;1.30;;;;;;;;;;5020043;28;20719;-53
2024/02/10 14:27:58;;;;;;;2.40;2.20;;;;;;;;;;5020071;28;20212;-53
2024/02/10 14:30:31;;;;;;;2.87;1.87;;;;;;;;;;5024726;28;20185;-53
2024/02/10 14:33:01;;;;;;;3.90;1.90;;;;;;;;;;5027550;28;20206;-52
2024/02/10 14:35:44;;;;;;;1.73;1.63;;;;;;;;;;5028319;28;20189;-52
2024/02/10 14:38:24;;;;;;;2.10;1.93;;;;;;;;;;5030552;28;20961;-52
2024/02/10 14:40:51;;;;;;;1.77;1.67;;;;;;;;;;5022919;28;20209;-52
2024/02/10 14:43:18;;;;;;;1.93;1.77;;;;;;;;;;5026796;28;20215;-52
2024/02/10 14:45:44;;;;;;;1.73;1.63;;;;;;;;;;5025593;28;20194;-53
2024/02/10 14:48:10;;;;;;;2.93;2.77;;;;;;;;;;5025370;28;20221;-54
2024/02/10 14:50:36;;;;;;;1.93;1.43;;;;;;;;;;5027661;28;20806;-54
2024/02/10 14:53:02;;;;;;;1.70;1.60;;;;;;;;;;5029029;28;20223;-54
2024/02/10 14:55:28;;;;;;;3.73;3.53;;;;;;;;;;5026989;28;20186;-55
2024/02/10 14:57:55;;;;;;;1.90;1.80;;;;;;;;;;5029050;28;20280;-54
2024/02/10 15:00:30;;;;;;;1.57;1.47;;;;;;;;;;5026458;28;20805;-53
2024/02/10 15:02:58;;;;;;;2.80;2.20;;;;;;;;;;5023897;28;20544;-54
2024/02/10 15:05:26;;;;;;;2.70;1.63;;;;;;;;;;5024597;28;20191;-53
2024/02/10 15:07:53;;;;;;;5.43;1.70;;;;;;;;;;5025354;28;20564;-54
2024/02/10 15:10:19;;;;;;;4.97;1.87;;;;;;;;;;5023140;28;20242;-56
2024/02/10 15:12:45;;;;;;;1.53;1.43;;;;;;;;;;5020554;28;20185;-54
2024/02/10 15:15:11;;;;;;;2.13;1.53;;;;;;;;;;5021434;28;20172;-54
2024/02/10 15:17:37;;;;;;;2.20;1.50;;;;;;;;;;5029420;28;20196;-54
2024/02/10 15:20:05;;;;;;;1.63;1.53;;;;;;;;;;5023992;28;20180;-55
2024/02/10 15:22:33;;;;;;;3.97;1.60;;;;;;;;;;5027798;28;20178;-55